Terminal Aerodrome Forecast
Issued by NWS Oklahoma City, OK

Home | Current Version | Previous Version | Text Only | Print | Product List | Glossary On
Versions: 1 2 3 4 5 6 7 8 9 10 11 12 13 14 15 16 17 18 19 20 21 22 23 24
000
FTUS44 KOUN 231126
TAFOUN
TAF
KOUN 231126Z 2312/2412 14010KT 4SM BR OVC004
     FM231800 14012KT 5SM -TSRA SCT004 OVC025CB
      TEMPO 2318/2320 VRB12G20KT 3/4SM +TSRA BKN004CB
     FM240100 15010KT 2SM TSRA SCT004 OVC025CB=

USA.gov is the U.S. government's official web portal to all federal, state and local government web resources and services.